Time;durP1;ratioP1;P1;durP2;ratioP2;P2;SDS_P1;SDS_P2;PMS_P1;PMS_P2;Temp;Humidity;BMP_temperature;BMP_pressure;BME280_temperature;BME280_humidity;BME280_pressure;Samples;Min_cycle;Max_cycle;Signal;HPM_P1;HPM_P2
2023/12/30 00:01:34;;;;;;;10.47;4.10;;;;;;;7.47;82.44;99315.88;4242177;28;22578;-73
2023/12/30 00:04:01;;;;;;;9.80;4.10;;;;;;;7.55;82.13;99313.25;4226660;28;20251;-72
2023/12/30 00:06:28;;;;;;;10.17;3.77;;;;;;;7.69;81.35;99307.28;4232049;28;20230;-73
2023/12/30 00:08:55;;;;;;;11.47;4.03;;;;;;;7.66;81.60;99312.97;4238217;28;20300;-72
2023/12/30 00:11:22;;;;;;;10.60;4.03;;;;;;;7.66;81.48;99309.44;4235475;28;20226;-72
2023/12/30 00:13:48;;;;;;;9.10;3.50;;;;;;;7.75;81.18;99305.78;4236851;28;20281;-71
2023/12/30 00:16:15;;;;;;;10.33;4.20;;;;;;;7.83;80.84;99305.03;4229083;28;20239;-71
2023/12/30 00:18:42;;;;;;;8.53;3.57;;;;;;;7.75;80.95;99305.78;4246180;28;25909;-72
2023/12/30 00:21:09;;;;;;;11.83;4.20;;;;;;;7.72;80.77;99314.22;4232201;28;20929;-72
2023/12/30 00:23:37;;;;;;;8.53;3.37;;;;;;;7.64;80.81;99306.91;4242564;28;21141;-72
2023/12/30 00:26:24;;;;;;;7.90;3.53;;;;;;;7.54;81.39;99312.38;4241826;28;20246;-73
2023/12/30 00:28:52;;;;;;;10.30;4.00;;;;;;;7.54;81.17;99312.38;4239853;28;20242;-72
2023/12/30 00:31:23;;;;;;;7.80;3.63;;;;;;;7.55;81.55;99311.38;4237955;28;20242;-71
2023/12/30 00:33:50;;;;;;;9.40;3.73;;;;;;;7.54;81.46;99312.38;4228608;28;21619;-72
2023/12/30 00:36:17;;;;;;;9.17;4.03;;;;;;;7.43;81.70;99296.47;4251066;28;20980;-72
2023/12/30 00:38:44;;;;;;;9.60;4.10;;;;;;;7.41;81.68;99304.69;4238728;28;21115;-73
2023/12/30 00:41:13;;;;;;;11.37;4.60;;;;;;;7.35;82.10;99293.72;4230942;28;20235;-74
2023/12/30 00:43:43;;;;;;;10.90;4.40;;;;;;;7.23;82.58;99296.63;4244162;28;21920;-72
2023/12/30 00:46:10;;;;;;;12.07;4.53;;;;;;;7.09;83.20;99300.72;4234383;28;20227;-71
2023/12/30 00:48:36;;;;;;;12.57;4.70;;;;;;;6.97;84.02;99304.59;4227937;28;20235;-71
2023/12/30 00:51:03;;;;;;;15.57;5.03;;;;;;;7.02;83.61;99301.47;4244582;28;20330;-71
2023/12/30 00:53:30;;;;;;;10.97;4.83;;;;;;;6.98;83.80;99303.63;4224108;28;20245;-72
2023/12/30 00:55:57;;;;;;;13.00;5.23;;;;;;;7.02;83.75;99306.84;4253721;28;20255;-71
2023/12/30 00:58:24;;;;;;;15.43;5.10;;;;;;;6.94;84.05;99302.25;4239455;28;20713;-71
2023/12/30 01:00:51;;;;;;;12.60;5.00;;;;;;;6.82;84.42;99302.44;4233718;28;20336;-72
2023/12/30 01:03:18;;;;;;;11.83;4.63;;;;;;;6.84;84.62;99290.69;4224156;28;20409;-71
2023/12/30 01:05:45;;;;;;;12.97;5.20;;;;;;;6.81;84.60;99278.41;4241226;28;21155;-71
2023/12/30 01:08:12;;;;;;;10.53;4.90;;;;;;;6.69;85.52;99284.97;4230950;28;21882;-72
2023/12/30 01:10:39;;;;;;;14.83;5.27;;;;;;;6.66;85.57;99280.72;4229406;28;20590;-72
2023/12/30 01:13:06;;;;;;;14.13;5.33;;;;;;;6.72;85.40;99277.44;4239951;28;20237;-72
2023/12/30 01:15:33;;;;;;;17.70;5.50;;;;;;;6.81;85.25;99278.41;4236958;28;21097;-71
2023/12/30 01:17:59;;;;;;;12.43;5.13;;;;;;;6.93;84.58;99273.63;4246380;28;20354;-72
2023/12/30 01:20:26;;;;;;;10.53;4.80;;;;;;;6.89;85.03;99283.00;4239420;28;20264;-71
2023/12/30 01:22:52;;;;;;;13.23;5.10;;;;;;;6.94;85.05;99278.03;4238023;28;20318;-71
2023/12/30 01:25:19;;;;;;;11.17;5.20;;;;;;;6.90;84.83;99280.19;4254778;28;21928;-71
2023/12/30 01:27:45;;;;;;;20.47;5.23;;;;;;;7.00;84.54;99276.53;4237695;28;20235;-71
2023/12/30 01:30:12;;;;;;;10.30;4.73;;;;;;;6.97;84.77;99270.50;4242665;28;20274;-72
2023/12/30 01:32:39;;;;;;;10.03;4.63;;;;;;;6.93;84.95;99262.88;4226413;28;21206;-72
2023/12/30 01:35:06;;;;;;;10.90;4.37;;;;;;;6.99;84.87;99270.34;4243563;28;21256;-71
2023/12/30 01:37:33;;;;;;;11.67;5.07;;;;;;;6.98;84.76;99265.94;4240032;28;23467;-72
2023/12/30 01:40:01;;;;;;;11.27;4.60;;;;;;;6.90;84.94;99264.03;4232365;28;21092;-71
2023/12/30 01:42:27;;;;;;;13.00;5.30;;;;;;;7.02;84.28;99267.34;4236363;28;21203;-72
2023/12/30 01:44:55;;;;;;;10.10;4.83;;;;;;;7.02;84.29;99267.34;4244762;28;20226;-72
2023/12/30 01:47:21;;;;;;;13.73;5.00;;;;;;;7.06;84.22;99263.34;4242081;28;21762;-72
2023/12/30 01:49:48;;;;;;;11.73;4.97;;;;;;;7.07;84.39;99261.47;4233186;28;20923;-70
2023/12/30 01:52:15;;;;;;;8.57;4.50;;;;;;;7.05;84.09;99258.94;4237968;28;22585;-71
2023/12/30 01:54:42;;;;;;;9.90;4.30;;;;;;;7.10;83.94;99256.63;4233796;28;21831;-72
2023/12/30 01:57:10;;;;;;;10.80;4.37;;;;;;;7.01;84.50;99246.81;4222791;28;20380;-71
2023/12/30 01:59:38;;;;;;;12.67;4.93;;;;;;;7.14;83.81;99244.56;4229761;28;21837;-72
2023/12/30 02:02:04;;;;;;;12.97;5.20;;;;;;;7.25;83.27;99251.56;4231667;28;20248;-71
2023/12/30 02:04:31;;;;;;;10.57;4.67;;;;;;;7.20;83.45;99245.81;4238011;28;21997;-72
2023/12/30 02:06:58;;;;;;;12.33;5.20;;;;;;;7.18;83.54;99244.25;4238191;28;20231;-71
2023/12/30 02:09:25;;;;;;;10.33;4.53;;;;;;;7.19;83.38;99248.63;4236373;28;20235;-70
2023/12/30 02:11:51;;;;;;;13.10;5.20;;;;;;;7.29;83.12;99244.84;4260735;28;20363;-71
2023/12/30 02:14:30;;;;;;;13.23;4.63;;;;;;;7.33;82.70;99237.31;4245370;28;20231;-72
2023/12/30 02:16:57;;;;;;;10.77;4.50;;;;;;;7.31;82.85;99233.94;4233664;28;20294;-71
2023/12/30 02:19:25;;;;;;;10.43;4.13;;;;;;;7.32;82.66;99219.50;4243252;28;22479;-70
2023/12/30 02:21:52;;;;;;;11.57;4.97;;;;;;;7.28;82.72;99229.72;4228094;28;20231;-72
2023/12/30 02:24:20;;;;;;;11.07;5.17;;;;;;;7.35;82.57;99218.34;4234865;28;20243;-71
2023/12/30 02:26:47;;;;;;;12.00;4.83;;;;;;;7.36;82.59;99211.94;4249779;28;20974;-72
2023/12/30 02:29:13;;;;;;;10.17;4.50;;;;;;;7.36;82.41;99202.00;4249559;28;20235;-72
2023/12/30 02:31:45;;;;;;;12.17;4.40;;;;;;;7.33;82.68;99199.63;4237168;28;23739;-72
2023/12/30 02:34:14;;;;;;;11.43;4.40;;;;;;;7.34;82.39;99200.47;4256029;28;21956;-71
2023/12/30 02:36:42;;;;;;;14.63;4.00;;;;;;;7.40;82.35;99197.16;4226076;28;20246;-71
2023/12/30 02:39:09;;;;;;;11.00;4.50;;;;;;;7.47;82.22;99197.38;4248276;28;22343;-73
2023/12/30 02:41:36;;;;;;;10.03;4.13;;;;;;;7.42;82.25;99196.00;4216151;28;20239;-71
2023/12/30 02:44:03;;;;;;;11.23;4.17;;;;;;;7.49;82.08;99198.03;4229149;28;20398;-71
2023/12/30 02:46:30;;;;;;;10.07;4.10;;;;;;;7.43;81.94;99194.16;4231728;28;20222;-71
2023/12/30 02:48:57;;;;;;;8.70;3.60;;;;;;;7.47;81.90;99194.69;4234723;28;20226;-72
2023/12/30 02:51:24;;;;;;;9.33;4.13;;;;;;;7.49;81.79;99195.34;4231664;28;20437;-71
2023/12/30 02:53:51;;;;;;;11.23;4.33;;;;;;;7.53;81.79;99186.81;4231297;28;20863;-71
2023/12/30 02:56:25;;;;;;;9.27;3.63;;;;;;;7.45;81.85;99192.13;4238695;28;23491;-72
2023/12/30 02:58:58;;;;;;;7.57;3.57;;;;;;;7.57;81.57;99180.13;4228688;28;20231;-71
2023/12/30 03:01:27;;;;;;;8.63;3.83;;;;;;;7.64;81.12;99185.69;4244474;28;21005;-72
2023/12/30 03:03:56;;;;;;;10.07;4.00;;;;;;;7.51;81.34;99171.81;4237832;28;20413;-73
2023/12/30 03:06:23;;;;;;;8.20;3.90;;;;;;;7.58;81.34;99173.72;4236720;28;21116;-70
2023/12/30 03:08:50;;;;;;;9.77;3.90;;;;;;;7.62;81.32;99166.19;4234360;28;20230;-71
2023/12/30 03:11:17;;;;;;;10.37;4.20;;;;;;;7.65;81.16;99170.38;4234646;28;20242;-73
2023/12/30 03:13:45;;;;;;;8.30;3.87;;;;;;;7.67;81.13;99166.53;4240339;28;22786;-70
2023/12/30 03:16:14;;;;;;;8.10;3.63;;;;;;;7.73;80.52;99157.81;4233184;28;20348;-70
2023/12/30 03:18:42;;;;;;;6.57;3.40;;;;;;;7.79;80.76;99161.72;4228040;28;25114;-71
2023/12/30 03:21:10;;;;;;;7.33;3.50;;;;;;;7.75;80.79;99136.06;4250494;28;20276;-73
2023/12/30 03:23:37;;;;;;;7.93;3.47;;;;;;;7.86;80.37;99130.41;4231554;28;20238;-71
2023/12/30 03:26:05;;;;;;;8.00;3.30;;;;;;;7.87;80.11;99118.63;4268312;28;20284;-71
2023/12/30 03:28:32;;;;;;;7.20;3.07;;;;;;;7.90;80.26;99114.78;4231813;28;22513;-71
2023/12/30 03:30:58;;;;;;;7.47;3.20;;;;;;;7.95;79.92;99122.38;4243018;28;20235;-72
2023/12/30 03:33:26;;;;;;;7.63;3.10;;;;;;;7.95;79.92;99100.81;4223122;28;20370;-71
2023/12/30 03:35:54;;;;;;;5.70;2.80;;;;;;;8.05;79.50;99109.59;4238846;28;20237;-71
2023/12/30 03:38:21;;;;;;;8.30;3.00;;;;;;;8.04;79.37;99102.53;4234142;28;20285;-71
2023/12/30 03:40:48;;;;;;;7.83;3.00;;;;;;;8.08;79.04;99102.00;4241688;28;20282;-70
2023/12/30 03:43:16;;;;;;;6.53;3.17;;;;;;;8.17;78.86;99102.91;4235787;28;20552;-71
2023/12/30 03:45:42;;;;;;;4.87;2.60;;;;;;;8.20;78.68;99102.53;4236710;28;21119;-73
2023/12/30 03:48:09;;;;;;;6.47;2.70;;;;;;;8.25;78.43;99096.66;4233037;28;20247;-72
2023/12/30 03:50:37;;;;;;;7.27;2.63;;;;;;;8.30;78.65;99106.94;4240362;28;20248;-72
2023/12/30 03:53:04;;;;;;;4.63;2.50;;;;;;;8.33;78.10;99101.25;4236061;28;20329;-71
2023/12/30 03:55:31;;;;;;;5.77;2.40;;;;;;;8.37;78.07;99094.50;4238581;28;20231;-71
2023/12/30 03:57:58;;;;;;;6.33;2.70;;;;;;;8.45;77.39;99099.06;4234317;28;20239;-74
2023/12/30 04:00:25;;;;;;;4.93;2.70;;;;;;;8.45;77.21;99090.97;4238546;28;20297;-73
2023/12/30 04:02:52;;;;;;;4.53;2.27;;;;;;;8.53;77.17;99085.63;4239083;28;20232;-75
2023/12/30 04:05:19;;;;;;;5.50;2.10;;;;;;;8.59;77.09;99089.50;4235160;28;20292;-74
2023/12/30 04:07:45;;;;;;;4.60;2.13;;;;;;;8.57;77.23;99095.88;4235076;28;21122;-76
2023/12/30 04:10:14;;;;;;;5.73;2.77;;;;;;;8.57;76.74;99090.50;4244236;28;20260;-73
2023/12/30 04:12:41;;;;;;;4.57;2.43;;;;;;;8.61;76.69;99087.47;4237829;28;20326;-74
2023/12/30 04:15:09;;;;;;;4.63;2.40;;;;;;;8.66;76.34;99071.63;4234464;28;20340;-74
2023/12/30 04:17:36;;;;;;;4.83;2.17;;;;;;;8.67;76.37;99078.69;4237039;28;22143;-74
2023/12/30 04:20:05;;;;;;;8.23;2.20;;;;;;;8.69;76.37;99085.63;4235799;28;20326;-74
2023/12/30 04:22:32;;;;;;;5.73;2.27;;;;;;;8.75;76.20;99076.00;4236231;28;20284;-74
2023/12/30 04:25:00;;;;;;;5.70;2.47;;;;;;;8.79;75.98;99077.38;4248385;28;23615;-73
2023/12/30 04:27:27;;;;;;;4.80;2.20;;;;;;;8.77;75.96;99075.81;4245591;28;20230;-72
2023/12/30 04:29:54;;;;;;;6.00;2.20;;;;;;;8.75;75.74;99080.56;4240909;28;22992;-72
2023/12/30 04:32:21;;;;;;;6.47;2.23;;;;;;;8.72;76.24;99079.88;4233015;28;20241;-74
2023/12/30 04:34:49;;;;;;;5.83;2.07;;;;;;;8.86;75.34;99081.06;4237826;28;20231;-72
2023/12/30 04:37:16;;;;;;;5.53;2.30;;;;;;;8.80;75.88;99051.22;4242102;28;21414;-74
2023/12/30 04:39:43;;;;;;;4.50;2.00;;;;;;;8.81;75.51;99071.78;4217005;28;20252;-74
2023/12/30 04:42:11;;;;;;;4.83;2.20;;;;;;;8.75;76.25;99076.00;4235775;28;22024;-75
2023/12/30 04:44:38;;;;;;;5.27;2.13;;;;;;;8.80;76.06;99076.34;4234918;28;20301;-74
2023/12/30 04:47:06;;;;;;;6.00;2.13;;;;;;;8.84;75.74;99077.69;4241311;28;20227;-73
2023/12/30 04:49:33;;;;;;;4.37;2.13;;;;;;;8.83;75.91;99072.47;4246496;28;25634;-74
2023/12/30 04:52:00;;;;;;;3.87;2.00;;;;;;;8.81;76.02;99074.50;4239098;28;20235;-72
2023/12/30 04:54:27;;;;;;;5.30;2.37;;;;;;;8.70;77.20;99070.28;4231747;28;20243;-73
2023/12/30 04:56:53;;;;;;;5.10;2.00;;;;;;;8.79;76.82;99073.81;4232094;28;20476;-73
2023/12/30 04:59:20;;;;;;;4.10;2.17;;;;;;;8.66;77.36;99058.13;4243554;28;20668;-72
2023/12/30 05:01:47;;;;;;;7.40;2.30;;;;;;;8.65;77.70;99069.94;4238908;28;20352;-72
2023/12/30 05:04:14;;;;;;;3.83;2.10;;;;;;;8.66;77.46;99063.53;4251906;28;20234;-75
2023/12/30 05:06:40;;;;;;;5.10;1.87;;;;;;;8.62;77.26;99075.69;4234847;28;20258;-72
2023/12/30 05:09:08;;;;;;;7.33;2.00;;;;;;;8.62;77.36;99060.31;4216272;28;23643;-72
2023/12/30 05:11:35;;;;;;;5.30;2.30;;;;;;;8.63;77.08;99061.19;4230728;28;22572;-72
2023/12/30 05:14:02;;;;;;;5.43;1.87;;;;;;;8.68;77.01;99073.16;4236612;28;20227;-74
2023/12/30 05:16:28;;;;;;;5.67;2.13;;;;;;;8.70;76.88;99064.88;4236336;28;20522;-72
2023/12/30 05:18:55;;;;;;;5.20;1.97;;;;;;;8.69;76.83;99074.00;4248755;28;21372;-73
2023/12/30 05:21:22;;;;;;;5.80;2.20;;;;;;;8.54;77.64;99080.06;4240329;28;20469;-71
2023/12/30 05:23:48;;;;;;;8.13;2.43;;;;;;;8.58;77.50;99067.06;4243545;28;20987;-72
2023/12/30 05:26:15;;;;;;;5.33;1.90;;;;;;;8.61;77.62;99057.81;4220793;28;20244;-72
2023/12/30 05:28:41;;;;;;;3.90;2.00;;;;;;;8.57;78.17;99063.53;4233195;28;20235;-75
2023/12/30 05:31:08;;;;;;;3.40;1.80;;;;;;;8.49;78.12;99073.47;4254095;28;20410;-74
2023/12/30 05:33:35;;;;;;;4.17;1.90;;;;;;;8.56;78.18;99091.53;4230645;28;20238;-73
2023/12/30 05:36:02;;;;;;;3.03;1.70;;;;;;;8.57;77.90;99079.72;4247077;28;21755;-72
2023/12/30 05:38:28;;;;;;;3.80;2.07;;;;;;;8.38;79.13;99085.41;4233107;28;20235;-72
2023/12/30 05:40:55;;;;;;;3.23;1.60;;;;;;;8.34;79.35;99095.69;4222227;28;20308;-74
2023/12/30 05:43:21;;;;;;;4.27;1.97;;;;;;;8.38;78.96;99088.94;4233263;28;20409;-72
2023/12/30 05:45:50;;;;;;;7.87;2.07;;;;;;;8.27;79.83;99089.25;4235483;28;20690;-73
2023/12/30 05:48:17;;;;;;;6.60;2.07;;;;;;;8.27;79.84;99100.03;4233366;28;20230;-73
2023/12/30 05:50:44;;;;;;;4.20;2.00;;;;;;;8.20;80.06;99093.63;4233334;28;22711;-71
2023/12/30 05:53:11;;;;;;;5.80;2.03;;;;;;;8.17;80.31;99104.72;4231389;28;20231;-73
2023/12/30 05:55:40;;;;;;;4.90;1.90;;;;;;;8.11;80.86;99111.66;4238375;28;20455;-74
2023/12/30 05:58:07;;;;;;;3.73;2.20;;;;;;;8.13;81.06;99108.78;4237455;28;20231;-72
2023/12/30 06:00:33;;;;;;;3.97;1.93;;;;;;;8.08;81.79;99120.88;4236105;28;20422;-71
2023/12/30 06:03:00;;;;;;;6.43;2.00;;;;;;;8.08;82.69;99128.13;4227276;28;20243;-72
2023/12/30 06:05:27;;;;;;;3.73;1.70;;;;;;;8.15;82.57;99133.72;4236286;28;26392;-74
2023/12/30 06:07:53;;;;;;;5.07;2.00;;;;;;;8.01;83.63;99127.94;4239886;28;20296;-73
2023/12/30 06:10:20;;;;;;;4.73;1.37;;;;;;;8.04;83.19;99143.78;4223370;28;21602;-72
2023/12/30 06:12:47;;;;;;;4.10;1.30;;;;;;;8.06;82.08;99141.78;4237815;28;20238;-73
2023/12/30 06:15:13;;;;;;;3.37;1.10;;;;;;;8.06;81.27;99130.13;4251450;28;20238;-71
2023/12/30 06:17:40;;;;;;;3.03;0.87;;;;;;;7.96;82.76;99165.31;4242558;28;20559;-73
2023/12/30 06:20:09;;;;;;;1.57;0.70;;;;;;;7.85;84.23;99169.13;4245555;28;20233;-74
2023/12/30 06:22:36;;;;;;;1.77;1.10;;;;;;;7.56;88.37;99159.56;4239239;28;20232;-73
2023/12/30 06:25:03;;;;;;;1.90;0.90;;;;;;;7.30;92.34;99192.72;4242778;28;20330;-73
2023/12/30 06:27:30;;;;;;;1.73;0.90;;;;;;;6.96;95.63;99177.31;4235680;28;20226;-73
2023/12/30 06:29:57;;;;;;;2.53;0.90;;;;;;;6.81;97.11;99178.88;4244131;28;20318;-74
2023/12/30 06:32:23;;;;;;;1.17;0.73;;;;;;;6.71;98.45;99189.72;4255921;28;22212;-74
2023/12/30 06:34:50;;;;;;;2.00;0.90;;;;;;;6.60;99.52;99181.84;4225002;28;21111;-72
2023/12/30 06:37:17;;;;;;;2.40;0.90;;;;;;;6.57;99.89;99184.88;4237298;28;20242;-72
2023/12/30 06:39:45;;;;;;;1.93;0.90;;;;;;;6.56;98.46;99167.03;4240690;28;20230;-73
2023/12/30 06:42:11;;;;;;;1.77;0.87;;;;;;;6.61;97.01;99170.09;4237507;28;20239;-76
2023/12/30 06:44:38;;;;;;;2.83;0.60;;;;;;;6.68;94.13;99173.88;4221607;28;20298;-75
2023/12/30 06:47:06;;;;;;;5.40;0.90;;;;;;;6.62;94.56;99191.44;4240639;28;20239;-76
2023/12/30 06:49:32;;;;;;;1.27;0.70;;;;;;;6.58;94.45;99194.59;4249872;28;20236;-74
2023/12/30 06:51:59;;;;;;;0.97;0.73;;;;;;;6.52;94.95;99192.53;4231830;28;20234;-76
2023/12/30 06:54:26;;;;;;;2.00;1.03;;;;;;;6.54;94.61;99190.53;4236564;28;21789;-74
2023/12/30 06:56:53;;;;;;;4.70;0.80;;;;;;;6.53;94.82;99203.16;4240352;28;20622;-77
2023/12/30 06:59:20;;;;;;;2.00;0.80;;;;;;;6.56;94.15;99210.88;4240997;28;21819;-74
2023/12/30 07:01:48;;;;;;;1.77;0.73;;;;;;;6.56;94.43;99207.38;4235431;28;20259;-73
2023/12/30 07:04:14;;;;;;;1.23;0.80;;;;;;;6.55;94.50;99205.66;4237764;28;20511;-75
2023/12/30 07:06:41;;;;;;;2.03;1.00;;;;;;;6.52;94.88;99203.28;4242133;28;21105;-78
2023/12/30 07:09:08;;;;;;;2.20;0.90;;;;;;;6.49;95.63;99202.59;4243244;28;20311;-76
2023/12/30 07:11:34;;;;;;;2.53;1.23;;;;;;;6.52;96.17;99205.97;4235828;28;22315;-76
2023/12/30 07:14:01;;;;;;;1.43;1.00;;;;;;;6.47;96.64;99201.91;4238261;28;21819;-74
2023/12/30 07:16:27;;;;;;;2.00;1.20;;;;;;;6.53;97.28;99215.72;4272613;28;20901;-75
2023/12/30 07:18:55;;;;;;;3.27;1.80;;;;;;;6.48;97.87;99208.97;4246341;28;21539;-75
2023/12/30 07:21:22;;;;;;;5.97;1.80;;;;;;;6.45;98.21;99201.19;4253385;28;20227;-77
2023/12/30 07:23:49;;;;;;;3.70;2.00;;;;;;;6.43;98.80;99218.47;4261388;28;20276;-75
2023/12/30 07:26:16;;;;;;;4.60;2.30;;;;;;;6.40;99.53;99224.16;4259650;28;20235;-77
2023/12/30 07:28:42;;;;;;;6.23;2.63;;;;;;;6.41;99.37;99224.00;4241004;28;25014;-77
2023/12/30 07:31:09;;;;;;;5.53;2.17;;;;;;;6.40;99.59;99216.09;4267051;28;22000;-76
2023/12/30 07:33:36;;;;;;;4.17;2.00;;;;;;;6.47;99.53;99225.22;4261526;28;21191;-75
2023/12/30 07:36:05;;;;;;;2.80;1.50;;;;;;;6.50;99.32;99222.25;4245678;28;20723;-77
2023/12/30 07:38:32;;;;;;;3.43;1.80;;;;;;;6.56;99.08;99231.56;4242387;28;23803;-76
2023/12/30 07:40:59;;;;;;;2.80;1.30;;;;;;;6.58;98.40;99229.56;4272009;28;20237;-74
2023/12/30 07:43:26;;;;;;;4.67;1.87;;;;;;;6.59;98.68;99229.41;4261502;28;21571;-76
2023/12/30 07:45:53;;;;;;;3.20;1.53;;;;;;;6.61;98.37;99234.63;4252133;28;20590;-77
2023/12/30 07:48:20;;;;;;;2.60;1.50;;;;;;;6.66;98.13;99243.09;4242349;28;21889;-75
2023/12/30 07:50:47;;;;;;;2.93;1.70;;;;;;;6.75;97.47;99244.03;4247055;28;20245;-75
2023/12/30 07:53:14;;;;;;;4.23;1.50;;;;;;;6.80;97.39;99234.50;4272298;28;20235;-73
2023/12/30 07:55:40;;;;;;;2.67;1.23;;;;;;;6.89;96.78;99239.94;4272459;28;20308;-75
2023/12/30 07:58:07;;;;;;;2.47;1.40;;;;;;;6.93;96.68;99244.03;4298921;28;20258;-74
2023/12/30 08:00:34;;;;;;;4.00;1.40;;;;;;;7.01;96.01;99244.13;4255216;28;23590;-74
2023/12/30 08:03:00;;;;;;;2.60;1.40;;;;;;;7.07;94.24;99245.34;4254030;28;21827;-72
2023/12/30 08:05:27;;;;;;;2.47;1.20;;;;;;;7.09;92.71;99222.69;4247616;28;20239;-73
2023/12/30 08:07:55;;;;;;;2.27;1.30;;;;;;;7.21;91.72;99227.81;4256907;28;20782;-70
2023/12/30 08:10:24;;;;;;;5.10;1.10;;;;;;;7.07;93.02;99242.63;4246974;28;20236;-72
2023/12/30 08:12:50;;;;;;;3.00;1.03;;;;;;;6.93;94.10;99252.94;4248803;28;20245;-69
2023/12/30 08:15:17;;;;;;;1.93;1.27;;;;;;;6.91;93.24;99254.09;4245945;28;20231;-73
2023/12/30 08:17:44;;;;;;;4.10;1.30;;;;;;;6.93;93.19;99255.63;4271569;28;20247;-78
2023/12/30 08:20:11;;;;;;;2.87;1.13;;;;;;;6.90;92.44;99260.47;4268190;28;20234;-75
2023/12/30 08:22:38;;;;;;;2.40;1.07;;;;;;;6.90;91.75;99261.34;4271493;28;26220;-74
2023/12/30 08:25:05;;;;;;;3.00;1.07;;;;;;;6.91;91.87;99271.09;4254290;28;20246;-76
2023/12/30 08:27:32;;;;;;;4.30;1.47;;;;;;;6.76;95.10;99270.78;4246921;28;21685;-75
2023/12/30 08:29:58;;;;;;;4.30;1.50;;;;;;;6.64;96.96;99274.69;4262634;28;25201;-75
2023/12/30 08:32:25;;;;;;;4.20;1.70;;;;;;;6.57;98.72;99273.59;4264948;28;20291;-81
2023/12/30 08:34:54;;;;;;;7.30;1.80;;;;;;;6.53;100.00;99280.25;4261797;28;20235;-82
2023/12/30 08:37:21;;;;;;;2.57;1.40;;;;;;;6.43;100.00;99280.31;4243203;28;21592;-74
2023/12/30 08:39:48;;;;;;;4.60;1.47;;;;;;;6.52;99.47;99278.56;4262730;28;20231;-72
2023/12/30 08:42:15;;;;;;;4.03;2.07;;;;;;;6.40;100.00;99288.66;4231352;28;20513;-76
2023/12/30 08:44:45;;;;;;;3.17;1.27;;;;;;;6.28;100.00;99299.63;4248638;28;20433;-78
2023/12/30 08:47:12;;;;;;;2.93;1.43;;;;;;;6.32;100.00;99316.28;4247205;28;20225;-78
2023/12/30 08:49:39;;;;;;;2.43;1.37;;;;;;;6.17;100.00;99311.41;4245506;28;20853;-80
2023/12/30 08:52:06;;;;;;;5.43;1.60;;;;;;;6.09;100.00;99316.66;4242061;28;20248;-77
2023/12/30 08:54:34;;;;;;;7.03;2.00;;;;;;;5.96;100.00;99310.72;4240345;28;20241;-79
2023/12/30 08:57:01;;;;;;;4.97;1.90;;;;;;;5.97;100.00;99310.56;4245031;28;20225;-78
2023/12/30 08:59:27;;;;;;;6.40;2.00;;;;;;;5.91;100.00;99313.00;4294384;28;20684;-78
2023/12/30 09:01:55;;;;;;;7.63;1.90;;;;;;;5.94;100.00;99320.78;4249042;28;20239;-81
2023/12/30 09:04:21;;;;;;;5.13;2.37;;;;;;;5.90;100.00;99333.63;4239635;28;20292;-85
2023/12/30 09:06:48;;;;;;;9.70;3.90;;;;;;;5.86;100.00;99334.91;4239393;28;20332;-78
2023/12/30 09:09:15;;;;;;;7.77;3.40;;;;;;;5.82;100.00;99336.19;4247941;28;22154;-79
2023/12/30 09:11:42;;;;;;;8.57;3.13;;;;;;;5.77;100.00;99336.63;4242208;28;21684;-75
2023/12/30 09:14:09;;;;;;;4.03;1.97;;;;;;;5.76;100.00;99334.94;4232193;28;20234;-78
2023/12/30 09:16:36;;;;;;;7.00;2.00;;;;;;;5.82;100.00;99363.88;4244777;28;20376;-75
2023/12/30 09:19:03;;;;;;;5.60;1.50;;;;;;;5.81;100.00;99369.41;4234044;28;20230;-73
2023/12/30 09:21:30;;;;;;;4.20;1.00;;;;;;;5.02;100.00;99355.13;4260913;28;20413;-74
2023/12/30 09:23:57;;;;;;;3.07;0.70;;;;;;;4.68;100.00;99364.34;4255829;28;21743;-75
2023/12/30 09:26:25;;;;;;;2.17;1.10;;;;;;;4.46;100.00;99360.03;4269901;28;20259;-75
2023/12/30 09:28:52;;;;;;;4.23;1.20;;;;;;;4.47;100.00;99363.56;4245089;28;20241;-74
2023/12/30 09:31:24;;;;;;;1.67;0.80;;;;;;;4.45;100.00;99347.63;4245253;28;22185;-73
2023/12/30 09:33:50;;;;;;;3.10;1.00;;;;;;;4.47;100.00;99351.00;4235339;28;23095;-72
2023/12/30 09:36:17;;;;;;;2.03;1.13;;;;;;;4.46;100.00;99343.94;4237955;28;20234;-77
2023/12/30 09:38:44;;;;;;;3.70;0.87;;;;;;;4.43;100.00;99354.94;4244027;28;23467;-76
2023/12/30 09:41:12;;;;;;;2.53;0.90;;;;;;;4.45;100.00;99344.97;4233772;28;20262;-79
2023/12/30 09:43:41;;;;;;;4.37;1.20;;;;;;;4.46;100.00;99359.19;4264234;28;20396;-77
2023/12/30 09:46:09;;;;;;;3.37;1.10;;;;;;;4.60;100.00;99356.13;4269245;28;20232;-80
2023/12/30 09:48:39;;;;;;;2.93;1.20;;;;;;;4.58;100.00;99348.25;4272662;28;22867;-71
2023/12/30 09:51:06;;;;;;;3.20;1.80;;;;;;;4.62;100.00;99346.13;4270849;28;20241;-73
2023/12/30 09:53:32;;;;;;;3.97;1.40;;;;;;;4.78;100.00;99344.78;4254720;28;21712;-73
2023/12/30 09:55:59;;;;;;;3.63;1.90;;;;;;;4.71;100.00;99333.75;4236468;28;20262;-74
2023/12/30 09:58:26;;;;;;;4.40;3.03;;;;;;;4.80;100.00;99338.28;4236462;28;21001;-74
2023/12/30 10:00:52;;;;;;;9.73;4.00;;;;;;;5.01;100.00;99337.31;4240606;28;21110;-74
2023/12/30 10:03:21;;;;;;;6.40;3.47;;;;;;;5.15;100.00;99342.28;4237375;28;20222;-76
2023/12/30 10:05:49;;;;;;;5.57;2.60;;;;;;;5.21;100.00;99336.34;4245237;28;20227;-72
2023/12/30 10:08:16;;;;;;;4.70;2.30;;;;;;;5.23;100.00;99331.69;4233881;28;20258;-74
2023/12/30 10:10:48;;;;;;;6.50;2.20;;;;;;;5.22;100.00;99329.16;4238551;28;21138;-72
2023/12/30 10:13:25;;;;;;;5.97;2.53;;;;;;;5.23;100.00;99326.34;4237432;28;23217;-74
2023/12/30 10:15:57;;;;;;;4.93;2.13;;;;;;;5.26;100.00;99338.63;4227746;28;20506;-74
2023/12/30 10:18:25;;;;;;;3.67;1.83;;;;;;;5.26;100.00;99333.25;4229632;28;20239;-74
2023/12/30 10:20:52;;;;;;;4.20;2.00;;;;;;;5.74;100.00;99341.44;4240310;28;20231;-77
2023/12/30 10:23:19;;;;;;;6.17;2.13;;;;;;;6.47;100.00;99343.53;4249200;28;21088;-76
2023/12/30 10:25:46;;;;;;;6.93;1.90;;;;;;;6.25;100.00;99348.28;4224676;28;21868;-73
2023/12/30 10:28:13;;;;;;;8.73;2.10;;;;;;;6.18;100.00;99337.28;4238646;28;20261;-74
2023/12/30 10:30:39;;;;;;;5.47;1.90;;;;;;;6.09;100.00;99348.91;4235201;28;20226;-75
2023/12/30 10:33:15;;;;;;;5.53;1.70;;;;;;;5.96;100.00;99346.50;4216507;28;20595;-76
2023/12/30 10:35:44;;;;;;;4.80;1.70;;;;;;;5.93;100.00;99344.06;4239805;28;20231;-73
2023/12/30 10:38:13;;;;;;;4.77;1.60;;;;;;;5.96;99.88;99340.28;4223148;28;20673;-69
2023/12/30 10:40:40;;;;;;;6.33;1.60;;;;;;;5.97;97.47;99336.56;4236175;28;20387;-70
2023/12/30 10:43:08;;;;;;;4.37;1.57;;;;;;;5.96;97.42;99345.66;4242437;28;20254;-72
2023/12/30 10:45:37;;;;;;;3.83;1.20;;;;;;;5.99;97.70;99348.06;4255052;28;20292;-69
2023/12/30 10:48:06;;;;;;;3.13;1.60;;;;;;;5.96;98.01;99349.19;4235416;28;20282;-71
2023/12/30 10:50:38;;;;;;;7.30;1.40;;;;;;;6.03;96.78;99360.22;4233502;28;20232;-71
2023/12/30 10:53:10;;;;;;;4.77;1.40;;;;;;;6.13;96.64;99350.28;4252456;28;20247;-72
2023/12/30 10:55:47;;;;;;;3.13;1.20;;;;;;;6.32;93.77;99360.13;4242058;28;21881;-74
2023/12/30 10:58:18;;;;;;;2.93;1.30;;;;;;;6.40;92.51;99359.41;4232315;28;20346;-71
2023/12/30 11:00:53;;;;;;;3.50;1.53;;;;;;;6.44;91.70;99350.03;4244666;28;25732;-71
2023/12/30 11:03:21;;;;;;;3.80;1.50;;;;;;;6.44;92.74;99366.19;4257060;28;21139;-72
2023/12/30 11:06:26;;;;;;;2.93;1.20;;;;;;;6.46;93.44;99377.63;4247894;28;20230;-76
2023/12/30 11:08:58;;;;;;;4.53;1.53;;;;;;;6.46;90.90;99355.28;4249107;28;20295;-72
2023/12/30 11:11:25;;;;;;;5.63;2.27;;;;;;;6.45;91.01;99372.41;4245949;28;20255;-72
2023/12/30 11:13:57;;;;;;;3.47;1.90;;;;;;;6.40;89.58;99372.84;4225733;28;20232;-72
2023/12/30 11:16:23;;;;;;;5.80;1.93;;;;;;;6.45;89.47;99372.41;4241790;28;21131;-71
2023/12/30 11:18:59;;;;;;;2.83;1.43;;;;;;;6.41;89.38;99371.88;4268033;28;20298;-71
2023/12/30 11:21:36;;;;;;;2.30;1.30;;;;;;;6.34;88.43;99371.59;4236211;28;20360;-72
2023/12/30 11:24:18;;;;;;;5.53;1.50;;;;;;;6.68;89.98;99364.81;4252595;28;20366;-65
2023/12/30 11:26:45;;;;;;;2.93;1.57;;;;;;;6.70;89.11;99384.34;4247645;28;20241;-68
2023/12/30 11:29:40;;;;;;;3.03;1.30;;;;;;;6.73;89.25;99375.13;4250266;28;20242;-62
2023/12/30 11:32:07;;;;;;;2.53;1.27;;;;;;;6.33;89.03;99386.03;4257637;28;22294;-70
2023/12/30 11:34:34;;;;;;;3.33;1.60;;;;;;;6.22;88.99;99399.66;4239434;28;20239;-70
2023/12/30 11:37:04;;;;;;;6.00;1.57;;;;;;;6.07;91.57;99409.97;4220173;28;22866;-72
2023/12/30 11:39:32;;;;;;;4.07;1.60;;;;;;;5.98;92.73;99409.00;4221276;28;20231;-73
2023/12/30 11:42:01;;;;;;;5.33;1.60;;;;;;;6.09;92.72;99436.69;4248681;28;20235;-69